Time;durP1;ratioP1;P1;durP2;ratioP2;P2;SDS_P1;SDS_P2;PMS_P1;PMS_P2;Temp;Humidity;BMP_temperature;BMP_pressure;BME280_temperature;BME280_humidity;BME280_pressure;Samples;Min_cycle;Max_cycle;Signal;HPM_P1;HPM_P2
2021/06/23 00:00:58;;;;;;;18.10;15.15;;;;;;;20.54;83.56;98181.06;126481;1093;22841;-84
2021/06/23 00:03:24;;;;;;;21.80;15.60;;;;;;;20.41;83.99;98175.30;126526;1092;22762;-84
2021/06/23 00:05:51;;;;;;;20.25;14.68;;;;;;;20.38;84.29;98180.65;126469;1092;22750;-84
2021/06/23 00:08:18;;;;;;;20.47;15.87;;;;;;;20.32;84.35;98188.27;126477;1093;25941;-82
2021/06/23 00:10:47;;;;;;;20.80;16.35;;;;;;;20.32;84.77;98195.75;126500;1093;22745;-83
2021/06/23 00:13:14;;;;;;;20.20;17.95;;;;;;;20.33;84.95;98205.66;126544;1093;27176;-83
2021/06/23 00:15:41;;;;;;;25.15;17.95;;;;;;;20.37;85.33;98201.16;126485;1093;23193;-83
2021/06/23 00:18:08;;;;;;;23.35;18.05;;;;;;;20.41;85.27;98204.91;126471;1093;22773;-83
2021/06/23 00:20:35;;;;;;;23.78;17.80;;;;;;;20.42;85.54;98201.03;126455;1093;22941;-83
2021/06/23 00:23:17;;;;;;;26.65;18.15;;;;;;;20.43;85.36;98197.95;126550;1092;22803;-84
2021/06/23 00:25:43;;;;;;;26.53;19.33;;;;;;;20.49;85.48;98209.70;126502;1093;28484;-84
2021/06/23 00:28:10;;;;;;;21.55;18.60;;;;;;;20.49;85.56;98209.70;126533;1093;22769;-83
2021/06/23 00:30:37;;;;;;;25.03;18.93;;;;;;;20.51;85.77;98206.61;126478;1093;27633;-83
2021/06/23 00:33:28;;;;;;;25.60;19.10;;;;;;;20.56;85.65;98207.30;126436;1093;22887;-83
2021/06/23 00:35:55;;;;;;;24.33;19.83;;;;;;;20.60;85.60;98201.94;126592;1093;27195;-83
2021/06/23 00:38:22;;;;;;;29.30;19.53;;;;;;;20.61;85.41;98192.48;126469;1093;22766;-82
2021/06/23 00:40:49;;;;;;;26.50;19.18;;;;;;;20.63;85.45;98204.11;126670;1093;22765;-83
2021/06/23 00:43:16;;;;;;;25.55;20.58;;;;;;;20.65;85.22;98205.41;126563;1093;22922;-83
2021/06/23 00:45:45;;;;;;;24.45;19.38;;;;;;;20.70;85.56;98206.40;126529;1093;22912;-83
2021/06/23 00:48:21;;;;;;;28.00;19.40;;;;;;;20.74;85.34;98207.42;126618;1093;22802;-83
2021/06/23 00:50:49;;;;;;;24.23;17.78;;;;;;;20.76;85.28;98214.25;126469;1092;23508;-83
2021/06/23 00:53:35;;;;;;;25.70;18.58;;;;;;;20.80;85.13;98228.27;126428;1093;22774;-83
2021/06/23 00:56:02;;;;;;;27.38;19.95;;;;;;;20.79;85.23;98229.42;126516;1093;22799;-83
2021/06/23 00:58:49;;;;;;;24.30;19.13;;;;;;;20.79;85.01;98221.13;126320;1093;26371;-83
2021/06/23 01:01:18;;;;;;;27.85;19.28;;;;;;;20.79;85.19;98229.42;126552;1092;25871;-83
2021/06/23 01:03:46;;;;;;;26.50;19.50;;;;;;;20.78;85.14;98230.55;126475;1092;22919;-83
2021/06/23 01:06:13;;;;;;;27.50;18.73;;;;;;;20.81;85.29;98235.45;126670;1093;22778;-83
2021/06/23 01:08:41;;;;;;;23.40;18.23;;;;;;;20.82;85.10;98242.60;126279;1093;22852;-83
2021/06/23 01:11:25;;;;;;;26.08;17.58;;;;;;;20.85;85.02;98240.02;126453;1093;22858;-84
2021/06/23 01:14:05;;;;;;;23.95;17.25;;;;;;;20.84;84.83;98245.86;126609;1093;22811;-84
2021/06/23 01:16:46;;;;;;;23.23;17.75;;;;;;;20.84;84.83;98245.86;126472;1093;22772;-84
2021/06/23 01:19:13;;;;;;;21.40;18.13;;;;;;;20.87;85.12;98245.23;126361;1093;22812;-84
2021/06/23 01:21:47;;;;;;;22.33;17.95;;;;;;;20.89;85.10;98251.27;126589;1092;22797;-84
2021/06/23 01:24:14;;;;;;;21.23;17.40;;;;;;;20.89;85.30;98251.27;126506;1093;22791;-84
2021/06/23 01:26:41;;;;;;;23.30;16.93;;;;;;;20.89;85.21;98256.80;126494;1093;22922;-84
2021/06/23 01:29:08;;;;;;;25.40;17.95;;;;;;;20.90;85.14;98252.91;126488;1093;22771;-84
2021/06/23 01:31:54;;;;;;;23.48;16.85;;;;;;;20.92;85.26;98258.94;126477;1093;22868;-84
2021/06/23 01:34:36;;;;;;;23.70;18.45;;;;;;;20.93;85.32;98256.98;126404;1093;25874;-84
2021/06/23 01:37:04;;;;;;;20.38;17.35;;;;;;;20.95;85.45;98265.81;126537;1093;22764;-84
2021/06/23 01:39:32;;;;;;;21.75;18.70;;;;;;;20.98;85.56;98268.76;126514;1092;22853;-84
2021/06/23 01:41:59;;;;;;;23.15;18.60;;;;;;;21.03;85.34;98271.39;126555;1093;22778;-84
2021/06/23 01:44:30;;;;;;;26.65;18.18;;;;;;;21.02;85.22;98275.28;126372;1092;26236;-84
2021/06/23 01:47:11;;;;;;;25.08;19.00;;;;;;;21.04;85.15;98283.27;126382;1093;22813;-84
2021/06/23 01:49:40;;;;;;;24.35;19.28;;;;;;;21.05;84.82;98282.95;126347;1093;26312;-84
2021/06/23 01:52:08;;;;;;;30.75;18.73;;;;;;;21.05;85.42;98287.66;126576;1093;24262;-84
2021/06/23 01:54:41;;;;;;;25.40;17.78;;;;;;;21.07;84.95;98292.88;126420;1093;22767;-84
2021/06/23 01:57:12;;;;;;;25.83;19.30;;;;;;;21.09;85.25;98296.98;126361;1093;23485;-84
2021/06/23 01:59:40;;;;;;;23.40;18.43;;;;;;;21.11;84.96;98297.48;126261;1091;23406;-84
2021/06/23 02:02:29;;;;;;;25.30;19.38;;;;;;;21.11;84.92;98296.67;126519;1092;22787;-84
2021/06/23 02:05:29;;;;;;;23.97;19.33;;;;;;;21.11;85.04;98293.90;126339;1093;22805;-84
2021/06/23 02:08:00;;;;;;;28.40;19.20;;;;;;;21.14;85.29;98298.78;126411;1092;26811;-84
2021/06/23 02:11:03;;;;;;;24.33;18.60;;;;;;;21.18;85.32;98295.06;126467;1093;23593;-84
2021/06/23 02:14:10;;;;;;;23.25;18.18;;;;;;;21.22;85.25;98289.70;126433;1093;22852;-84
2021/06/23 02:17:00;;;;;;;25.08;18.85;;;;;;;21.27;85.08;98291.52;126545;1092;27687;-84
2021/06/23 02:19:47;;;;;;;31.13;20.05;;;;;;;21.30;85.08;98290.86;126633;1093;22835;-84
2021/06/23 02:22:27;;;;;;;23.40;18.53;;;;;;;21.35;84.99;98304.57;126457;1092;22736;-84
2021/06/23 02:25:07;;;;;;;26.27;18.47;;;;;;;21.41;84.52;98311.62;126512;1093;22781;-84
2021/06/23 02:27:41;;;;;;;26.98;19.00;;;;;;;21.42;84.59;98313.23;126416;1093;22769;-84
2021/06/23 02:30:11;;;;;;;23.68;18.00;;;;;;;21.46;84.43;98314.28;126625;1093;27201;-84
2021/06/23 02:32:41;;;;;;;25.68;19.60;;;;;;;21.49;84.70;98310.04;126389;1091;22934;-83
2021/06/23 02:35:09;;;;;;;26.85;19.28;;;;;;;21.53;84.67;98311.02;126592;1092;22831;-84
2021/06/23 02:37:43;;;;;;;24.83;19.25;;;;;;;21.56;84.25;98305.66;126443;1093;22781;-84
2021/06/23 02:40:11;;;;;;;20.68;17.83;;;;;;;21.58;84.38;98302.56;126426;1092;22758;-83
2021/06/23 02:42:42;;;;;;;22.03;18.63;;;;;;;21.59;84.16;98312.52;126498;1093;22878;-83
2021/06/23 02:45:13;;;;;;;25.30;19.93;;;;;;;21.58;84.12;98314.48;126451;1093;22757;-84
2021/06/23 02:47:41;;;;;;;24.23;19.18;;;;;;;21.61;84.30;98318.55;126377;1093;22751;-84
2021/06/23 02:50:15;;;;;;;22.35;18.58;;;;;;;21.61;84.07;98313.02;126538;1092;27316;-84
2021/06/23 02:53:03;;;;;;;24.55;18.03;;;;;;;21.59;84.02;98312.52;126367;1093;23069;-84
2021/06/23 02:55:31;;;;;;;21.70;17.63;;;;;;;21.59;83.97;98318.06;126542;1093;22762;-84
2021/06/23 02:57:59;;;;;;;28.15;19.35;;;;;;;21.57;83.98;98320.34;126676;1092;22778;-84
2021/06/23 03:00:26;;;;;;;25.45;18.90;;;;;;;21.56;84.08;98321.47;126547;1093;22777;-84
2021/06/23 03:02:53;;;;;;;25.13;17.80;;;;;;;21.54;84.15;98327.33;126473;1092;22813;-84
2021/06/23 03:05:20;;;;;;;22.78;16.95;;;;;;;21.50;84.14;98325.54;126517;1092;25865;-84
2021/06/23 03:07:47;;;;;;;21.08;18.53;;;;;;;21.48;84.16;98330.56;126396;1093;24317;-84
2021/06/23 03:10:20;;;;;;;25.93;19.58;;;;;;;21.45;84.32;98336.73;126549;1093;22779;-84
2021/06/23 03:13:13;;;;;;;24.05;18.80;;;;;;;21.46;84.66;98330.06;126655;1092;22857;-84
2021/06/23 03:15:49;;;;;;;23.43;18.28;;;;;;;21.45;84.57;98317.34;126485;1093;22762;-84
2021/06/23 03:18:20;;;;;;;22.48;18.10;;;;;;;21.47;84.58;98318.66;126469;1093;26213;-84
2021/06/23 03:20:49;;;;;;;22.45;18.45;;;;;;;21.47;84.63;98328.94;126527;1093;22775;-84
2021/06/23 03:23:17;;;;;;;27.37;19.60;;;;;;;21.50;84.52;98344.94;126486;1092;23428;-84
2021/06/23 03:25:44;;;;;;;22.63;18.38;;;;;;;21.55;84.70;98342.83;126526;1092;22759;-84
2021/06/23 03:28:12;;;;;;;24.53;19.50;;;;;;;21.61;84.76;98346.27;126487;1091;22771;-84
2021/06/23 03:30:41;;;;;;;26.35;19.63;;;;;;;21.64;84.60;98345.63;126570;1093;22790;-84
2021/06/23 03:33:08;;;;;;;22.85;18.10;;;;;;;21.65;84.16;98350.02;126453;1092;23330;-84
2021/06/23 03:36:06;;;;;;;27.35;19.93;;;;;;;21.66;84.51;98365.52;126536;1092;22821;-84
2021/06/23 03:38:34;;;;;;;23.65;19.83;;;;;;;21.66;84.32;98357.21;126569;1093;22758;-84
2021/06/23 03:41:01;;;;;;;27.13;19.88;;;;;;;21.65;84.00;98363.88;126501;1091;23527;-84
2021/06/23 03:43:28;;;;;;;24.58;18.33;;;;;;;21.63;83.90;98362.58;126493;1093;22759;-84
2021/06/23 03:45:55;;;;;;;25.75;18.45;;;;;;;21.64;84.19;98362.27;126621;1092;22784;-83
2021/06/23 03:48:37;;;;;;;27.58;19.18;;;;;;;21.69;84.26;98358.51;126638;1092;26264;-83
2021/06/23 03:51:07;;;;;;;27.63;19.60;;;;;;;21.72;84.06;98360.65;126373;1093;22817;-83
2021/06/23 03:53:35;;;;;;;28.58;20.48;;;;;;;21.71;84.14;98362.61;126474;1093;22758;-84
2021/06/23 03:56:04;;;;;;;27.33;19.15;;;;;;;21.75;84.10;98363.59;126399;1092;24421;-84
2021/06/23 03:58:31;;;;;;;28.80;19.63;;;;;;;21.77;83.92;98366.05;126199;1093;25871;-84
2021/06/23 04:00:59;;;;;;;23.15;19.60;;;;;;;21.83;83.82;98375.03;126254;1093;26248;-84
2021/06/23 04:03:49;;;;;;;30.37;21.47;;;;;;;21.86;83.64;98368.85;126250;1093;22751;-84
2021/06/23 04:06:34;;;;;;;26.30;18.85;;;;;;;21.84;83.51;98377.48;126072;1093;22757;-84
2021/06/23 04:09:03;;;;;;;25.20;19.93;;;;;;;21.83;83.30;98377.80;126098;1093;22831;-84
2021/06/23 04:11:31;;;;;;;26.78;19.58;;;;;;;21.76;83.02;98384.64;126188;1093;22849;-84
2021/06/23 04:13:59;;;;;;;24.40;19.58;;;;;;;21.77;83.38;98386.26;126227;1093;22761;-84
2021/06/23 04:16:28;;;;;;;29.08;19.58;;;;;;;21.82;83.53;98373.41;126210;1093;22758;-84
2021/06/23 04:18:55;;;;;;;26.30;20.47;;;;;;;21.85;83.49;98378.30;126172;1093;23005;-84
2021/06/23 04:21:23;;;;;;;27.85;20.15;;;;;;;21.87;83.53;98387.94;126143;1093;24517;-84
2021/06/23 04:23:52;;;;;;;27.75;18.85;;;;;;;21.90;83.42;98386.47;126205;1093;24279;-84
2021/06/23 04:26:18;;;;;;;29.08;20.78;;;;;;;21.93;83.54;98394.15;126188;1093;22762;-84
2021/06/23 04:28:46;;;;;;;30.18;22.33;;;;;;;21.93;83.50;98396.92;126071;1093;22831;-84
2021/06/23 04:31:14;;;;;;;31.07;19.83;;;;;;;21.93;83.75;98400.50;126241;1093;22794;-84
2021/06/23 04:33:43;;;;;;;27.77;20.00;;;;;;;21.93;83.39;98399.69;126204;1093;22815;-84
2021/06/23 04:36:12;;;;;;;28.40;19.10;;;;;;;21.94;83.51;98404.92;126229;1093;24151;-84
2021/06/23 04:38:40;;;;;;;26.60;20.33;;;;;;;21.93;83.47;98397.73;126210;1093;22794;-83
2021/06/23 04:41:07;;;;;;;27.85;21.68;;;;;;;21.96;83.30;98407.38;126193;1093;22778;-84
2021/06/23 04:43:37;;;;;;;25.80;20.58;;;;;;;21.97;83.30;98408.99;126186;1093;22835;-84
2021/06/23 04:46:05;;;;;;;25.73;19.05;;;;;;;21.99;83.33;98403.94;126062;1093;27210;-83
2021/06/23 04:48:33;;;;;;;26.38;20.45;;;;;;;22.03;83.41;98404.95;126062;1092;22764;-84
2021/06/23 04:51:01;;;;;;;23.05;19.28;;;;;;;22.04;83.36;98397.44;126264;1093;22758;-84
2021/06/23 04:53:46;;;;;;;27.80;20.83;;;;;;;22.05;83.13;98397.13;126224;1093;22787;-84
2021/06/23 04:56:13;;;;;;;25.75;20.70;;;;;;;22.02;83.05;98403.30;126163;1093;22781;-83
2021/06/23 04:58:42;;;;;;;30.05;20.80;;;;;;;22.02;83.29;98394.17;126200;1093;22857;-83
2021/06/23 05:01:12;;;;;;;25.60;19.43;;;;;;;22.02;83.48;98394.98;126156;1093;22838;-83
2021/06/23 05:03:46;;;;;;;27.50;20.23;;;;;;;22.03;83.22;98393.86;126162;1093;22758;-83
2021/06/23 05:06:13;;;;;;;27.83;19.65;;;;;;;22.05;83.50;98390.77;126176;1093;27182;-83
2021/06/23 05:08:40;;;;;;;30.68;21.18;;;;;;;22.04;83.37;98402.98;126080;1093;22849;-83
2021/06/23 05:11:07;;;;;;;28.55;20.33;;;;;;;22.02;83.37;98400.53;126157;1093;22761;-83
2021/06/23 05:13:37;;;;;;;28.40;20.40;;;;;;;22.04;83.42;98394.66;126174;1093;25871;-84
2021/06/23 05:16:05;;;;;;;26.83;19.95;;;;;;;22.03;83.35;98390.24;126266;1093;26356;-84
2021/06/23 05:18:34;;;;;;;29.15;19.35;;;;;;;22.00;83.38;98400.04;126276;1092;24437;-84
2021/06/23 05:21:03;;;;;;;28.20;19.87;;;;;;;21.98;83.26;98396.77;126173;1092;22842;-84
2021/06/23 05:23:31;;;;;;;29.03;21.03;;;;;;;21.95;83.37;98397.41;126217;1093;22763;-84
2021/06/23 05:25:57;;;;;;;26.93;19.07;;;;;;;21.94;83.31;98410.47;126045;1093;24424;-84
2021/06/23 05:28:39;;;;;;;23.90;19.20;;;;;;;21.86;82.81;98414.02;126160;1093;22760;-84
2021/06/23 05:31:06;;;;;;;29.35;19.13;;;;;;;21.74;82.83;98420.19;126173;1093;22852;-84
2021/06/23 05:33:33;;;;;;;35.15;19.20;;;;;;;21.66;83.15;98418.19;126184;1092;27323;-84
2021/06/23 05:36:15;;;;;;;20.60;16.60;;;;;;;21.59;83.28;98420.60;126096;1093;22797;-84
2021/06/23 05:38:42;;;;;;;25.30;18.18;;;;;;;21.55;83.72;98419.61;126183;1093;22915;-84
2021/06/23 05:41:23;;;;;;;24.00;17.38;;;;;;;21.59;84.10;98418.64;126190;1093;22815;-84
2021/06/23 05:44:05;;;;;;;22.00;17.45;;;;;;;21.57;83.88;98428.42;126211;1093;22758;-84
2021/06/23 05:46:32;;;;;;;23.60;18.05;;;;;;;21.51;84.21;98424.14;126162;1093;22736;-83
2021/06/23 05:48:59;;;;;;;27.20;17.68;;;;;;;21.48;83.91;98424.77;126183;1093;22743;-84
2021/06/23 05:51:26;;;;;;;30.55;17.15;;;;;;;21.40;83.84;98440.18;126224;1093;22807;-84
2021/06/23 05:53:52;;;;;;;22.03;15.78;;;;;;;21.33;83.88;98445.36;126158;1093;22757;-84
2021/06/23 05:56:19;;;;;;;22.20;16.45;;;;;;;21.29;84.09;98442.40;126411;1093;22804;-84
2021/06/23 05:58:46;;;;;;;25.78;17.75;;;;;;;21.21;84.24;98443.16;126673;1092;25990;-84
2021/06/23 06:01:13;;;;;;;27.70;18.75;;;;;;;21.14;84.70;98442.78;126508;1093;25868;-84
2021/06/23 06:03:40;;;;;;;23.08;18.50;;;;;;;21.16;85.14;98459.89;126473;1092;22825;-84
2021/06/23 06:06:07;;;;;;;27.33;18.35;;;;;;;21.23;84.98;98463.07;126473;1092;22755;-84
2021/06/23 06:08:33;;;;;;;24.55;17.50;;;;;;;21.31;85.50;98470.59;126547;1093;22769;-84
2021/06/23 06:11:00;;;;;;;27.75;17.65;;;;;;;21.40;84.98;98474.23;126512;1092;22758;-84
2021/06/23 06:13:28;;;;;;;24.83;18.23;;;;;;;21.51;85.19;98474.02;126635;1093;23139;-84
2021/06/23 06:15:55;;;;;;;25.20;18.73;;;;;;;21.59;85.11;98482.38;126594;1093;25306;-84
2021/06/23 06:18:26;;;;;;;28.60;18.78;;;;;;;21.69;85.13;98484.08;126333;1093;22885;-84
2021/06/23 06:20:54;;;;;;;30.73;20.23;;;;;;;21.80;84.73;98482.66;126505;1093;22758;-84
2021/06/23 06:23:21;;;;;;;29.50;18.95;;;;;;;21.87;84.19;98482.20;126496;1093;25894;-84
2021/06/23 06:25:48;;;;;;;26.80;17.57;;;;;;;21.88;83.52;98481.05;126567;1092;22864;-84
2021/06/23 06:28:15;;;;;;;26.98;18.18;;;;;;;21.87;83.79;98495.23;126476;1093;27191;-84
2021/06/23 06:30:42;;;;;;;26.98;17.68;;;;;;;21.87;84.08;98498.00;126515;1093;22912;-84
2021/06/23 06:33:09;;;;;;;27.37;20.17;;;;;;;21.90;84.22;98505.69;126564;1092;25979;-84
2021/06/23 06:35:36;;;;;;;24.28;18.25;;;;;;;21.94;84.30;98501.97;126507;1093;22761;-84
2021/06/23 06:38:03;;;;;;;25.68;18.68;;;;;;;21.99;83.66;98501.83;126406;1093;22810;-84
2021/06/23 06:40:30;;;;;;;26.95;18.75;;;;;;;22.03;83.70;98502.02;126403;1093;27185;-84
2021/06/23 06:42:57;;;;;;;26.98;17.98;;;;;;;22.09;83.29;98505.45;126339;1093;25836;-84
2021/06/23 06:45:24;;;;;;;26.68;19.20;;;;;;;22.16;83.70;98509.39;126540;1093;22758;-84
2021/06/23 06:47:51;;;;;;;29.13;18.83;;;;;;;22.24;82.79;98515.29;126520;1093;25871;-84
2021/06/23 06:50:18;;;;;;;27.77;18.07;;;;;;;22.26;82.76;98513.84;126329;1093;22861;-84
2021/06/23 06:52:45;;;;;;;28.80;17.93;;;;;;;22.20;81.86;98517.89;126496;1092;22778;-84
2021/06/23 06:55:20;;;;;;;26.30;17.58;;;;;;;22.13;82.95;98512.83;126345;1093;22758;-84
2021/06/23 06:57:55;;;;;;;24.73;17.63;;;;;;;22.13;83.15;98511.98;126602;1093;22768;-84
2021/06/23 07:00:25;;;;;;;26.00;18.50;;;;;;;22.19;83.16;98517.08;126393;1092;22809;-84
2021/06/23 07:02:54;;;;;;;25.38;18.83;;;;;;;22.27;83.10;98515.50;126178;1093;22794;-84
2021/06/23 07:05:22;;;;;;;24.85;19.03;;;;;;;22.35;82.88;98511.13;126194;1093;22911;-84
2021/06/23 07:07:50;;;;;;;27.45;18.30;;;;;;;22.40;82.58;98519.31;126271;1093;27252;-84
2021/06/23 07:10:17;;;;;;;23.93;18.53;;;;;;;22.46;82.57;98523.56;126121;1093;22829;-84
2021/06/23 07:12:44;;;;;;;27.70;19.08;;;;;;;22.48;81.75;98521.28;126186;1093;22861;-84
2021/06/23 07:15:12;;;;;;;29.13;20.52;;;;;;;22.48;81.91;98526.83;126141;1093;27179;-84
2021/06/23 07:17:39;;;;;;;27.33;17.77;;;;;;;22.44;80.93;98522.27;126217;1093;22852;-85
2021/06/23 07:20:07;;;;;;;28.03;17.80;;;;;;;22.34;80.55;98521.39;126137;1093;23634;-85
2021/06/23 07:22:34;;;;;;;28.17;18.07;;;;;;;22.31;80.76;98529.55;126198;1093;27167;-85
2021/06/23 07:25:01;;;;;;;26.07;18.80;;;;;;;22.34;81.25;98534.46;126167;1093;22786;-85
2021/06/23 07:27:29;;;;;;;26.70;18.25;;;;;;;22.37;81.35;98525.50;126046;1093;22766;-85
2021/06/23 07:29:58;;;;;;;29.63;19.50;;;;;;;22.36;80.95;98526.63;126184;1093;22765;-85
2021/06/23 07:32:28;;;;;;;31.55;19.35;;;;;;;22.37;80.70;98523.53;126155;1092;22815;-85
2021/06/23 07:37:42;;;;;;;23.78;16.88;;;;;;;22.39;79.79;98519.63;126195;1093;22848;-85
2021/06/23 07:40:10;;;;;;;26.55;19.33;;;;;;;22.48;80.10;98523.25;126181;1093;22784;-85
2021/06/23 07:42:37;;;;;;;26.33;18.97;;;;;;;22.63;80.24;98521.96;126210;1093;22778;-85
2021/06/23 07:45:05;;;;;;;25.18;17.93;;;;;;;22.64;78.84;98515.28;126184;1093;22822;-85
2021/06/23 07:47:33;;;;;;;22.73;17.75;;;;;;;22.68;79.24;98521.81;126241;1093;25919;-85
2021/06/23 07:50:15;;;;;;;22.85;16.45;;;;;;;22.69;78.90;98532.59;126227;1093;22759;-85
2021/06/23 07:52:51;;;;;;;23.25;18.05;;;;;;;22.56;78.30;98528.82;126094;1092;22761;-85
2021/06/23 08:09:25;;;;;;;24.90;17.23;;;;;;;22.69;78.64;98529.02;126218;1093;22758;-85
2021/06/23 08:12:05;;;;;;;23.35;16.95;;;;;;;22.81;77.94;98523.65;126274;1093;22810;-85
2021/06/23 08:14:31;;;;;;;28.43;18.00;;;;;;;22.88;77.12;98526.76;126195;1093;22909;-85
2021/06/23 08:16:58;;;;;;;23.02;15.83;;;;;;;23.04;76.91;98534.63;126241;1093;22915;-85
2021/06/23 08:19:26;;;;;;;22.43;17.73;;;;;;;23.19;77.78;98525.01;126314;1093;22757;-86
2021/06/23 08:21:53;;;;;;;30.40;18.25;;;;;;;23.36;77.31;98532.53;126196;1093;22775;-85
2021/06/23 08:24:21;;;;;;;24.23;17.10;;;;;;;23.59;76.97;98531.19;126209;1093;22767;-85
2021/06/23 08:26:47;;;;;;;24.68;18.40;;;;;;;23.77;76.32;98531.16;126171;1093;22788;-85
2021/06/23 08:29:15;;;;;;;27.23;18.03;;;;;;;23.91;75.62;98533.77;126198;1092;22780;-85
2021/06/23 08:31:41;;;;;;;25.30;18.48;;;;;;;24.01;75.14;98542.58;126222;1093;22781;-86
2021/06/23 08:34:08;;;;;;;25.35;19.75;;;;;;;24.09;75.02;98546.47;126205;1093;22751;-85
2021/06/23 08:36:36;;;;;;;31.17;20.17;;;;;;;24.14;74.09;98542.70;126180;1092;22807;-85
2021/06/23 08:39:04;;;;;;;27.35;18.25;;;;;;;24.21;73.96;98545.78;126085;1093;24466;-85
2021/06/23 08:41:33;;;;;;;28.38;21.35;;;;;;;24.20;73.41;98547.73;126169;1092;22781;-85
2021/06/23 08:44:00;;;;;;;27.93;20.25;;;;;;;24.15;73.42;98561.02;126187;1093;26102;-85
2021/06/23 08:46:30;;;;;;;27.30;18.60;;;;;;;24.12;73.04;98562.51;126175;1093;25864;-85
2021/06/23 08:49:01;;;;;;;29.73;18.77;;;;;;;24.04;72.10;98563.34;126212;1093;22800;-85
2021/06/23 08:51:29;;;;;;;26.00;18.43;;;;;;;23.96;72.69;98564.20;126220;1092;22757;-85
2021/06/23 08:53:57;;;;;;;25.37;18.83;;;;;;;23.94;73.50;98563.69;126187;1093;25973;-85
2021/06/23 08:56:24;;;;;;;27.23;18.65;;;;;;;23.92;73.07;98565.98;126067;1093;22781;-85
2021/06/23 08:59:06;;;;;;;19.75;16.43;;;;;;;23.86;73.00;98565.35;126374;1093;27287;-85
2021/06/23 09:01:34;;;;;;;27.13;19.30;;;;;;;23.82;74.41;98567.98;126342;1093;22822;-85
2021/06/23 09:04:10;;;;;;;25.57;19.77;;;;;;;23.81;73.99;98566.33;126179;1093;22855;-85
2021/06/23 09:06:58;;;;;;;31.20;21.63;;;;;;;23.69;73.88;98566.16;126277;1093;26287;-85
2021/06/23 09:09:35;;;;;;;31.68;20.58;;;;;;;23.63;75.03;98570.27;126153;1092;24418;-85
2021/06/23 09:12:05;;;;;;;33.60;21.25;;;;;;;23.48;74.08;98572.41;126174;1093;22784;-85
2021/06/23 09:14:40;;;;;;;30.77;20.60;;;;;;;23.42;75.27;98578.45;126655;1092;22908;-85
2021/06/23 09:17:10;;;;;;;35.10;22.95;;;;;;;23.36;74.55;98577.81;126655;1093;26034;-84
2021/06/23 09:19:47;;;;;;;27.58;19.40;;;;;;;23.34;74.04;98579.27;126678;1092;22919;-84
2021/06/23 09:22:35;;;;;;;32.73;20.50;;;;;;;23.24;75.01;98585.97;126662;1093;22770;-85
2021/06/23 09:25:24;;;;;;;38.38;20.03;;;;;;;23.24;75.90;98586.78;126923;1092;22854;-84
2021/06/23 09:28:00;;;;;;;27.43;19.87;;;;;;;23.39;75.29;98587.44;126669;1093;22755;-84
2021/06/23 09:30:43;;;;;;;28.10;19.98;;;;;;;23.50;75.11;98592.36;126697;1093;23623;-85
2021/06/23 09:33:28;;;;;;;26.80;19.30;;;;;;;23.63;74.28;98581.39;126730;1092;22788;-84
2021/06/23 09:36:04;;;;;;;30.35;20.98;;;;;;;23.75;74.58;98589.88;126661;1093;22761;-84
2021/06/23 09:38:51;;;;;;;29.28;19.23;;;;;;;23.95;74.48;98588.39;126896;1093;23001;-84
2021/06/23 09:41:33;;;;;;;41.18;20.98;;;;;;;24.14;74.12;98590.00;126701;1092;22760;-84
2021/06/23 09:44:05;;;;;;;28.55;18.78;;;;;;;24.28;73.21;98598.16;126548;1093;22954;-85
2021/06/23 09:46:38;;;;;;;27.48;17.88;;;;;;;24.22;72.15;98591.92;126651;1093;25870;-85
2021/06/23 09:49:25;;;;;;;29.35;19.30;;;;;;;24.24;73.37;98586.84;126725;1092;22851;-84
2021/06/23 09:52:19;;;;;;;27.53;17.50;;;;;;;24.39;73.08;98586.30;126765;1092;22760;-84
2021/06/23 09:54:58;;;;;;;25.83;17.85;;;;;;;24.61;72.30;98587.21;126649;1093;22889;-85
2021/06/23 09:57:25;;;;;;;24.90;17.65;;;;;;;24.76;72.69;98586.65;126607;1093;24418;-84
2021/06/23 10:00:07;;;;;;;24.55;18.45;;;;;;;24.79;71.10;98579.61;126230;1093;22932;-84
2021/06/23 10:02:39;;;;;;;24.07;17.20;;;;;;;24.78;70.90;98584.34;126210;1092;22757;-84
2021/06/23 10:05:18;;;;;;;24.70;17.00;;;;;;;24.92;71.68;98586.88;126241;1093;25986;-84
2021/06/23 10:07:48;;;;;;;24.93;17.63;;;;;;;25.11;71.88;98596.78;126069;1093;22754;-84
2021/06/23 10:10:18;;;;;;;21.15;16.75;;;;;;;25.27;69.58;98586.69;126260;1093;27151;-84
2021/06/23 10:12:46;;;;;;;25.05;18.25;;;;;;;25.26;69.72;98587.02;126221;1093;24589;-84
2021/06/23 10:15:14;;;;;;;26.93;18.30;;;;;;;25.42;70.35;98588.03;126203;1092;22842;-84
2021/06/23 10:17:43;;;;;;;27.07;17.53;;;;;;;25.61;68.44;98589.53;126217;1093;26273;-84
2021/06/23 10:20:12;;;;;;;23.93;17.60;;;;;;;25.73;69.58;98595.16;126075;1093;27300;-84
2021/06/23 10:22:42;;;;;;;26.87;18.23;;;;;;;25.75;67.44;98601.21;126222;1093;22764;-84
2021/06/23 10:25:12;;;;;;;25.70;17.55;;;;;;;25.73;67.97;98590.39;126301;1093;22764;-84
2021/06/23 10:27:46;;;;;;;23.68;17.08;;;;;;;25.80;67.25;98583.42;126248;1093;24137;-84
2021/06/23 10:30:14;;;;;;;21.27;16.67;;;;;;;25.84;67.46;98576.83;126168;1093;26258;-84
2021/06/23 10:32:43;;;;;;;21.53;15.85;;;;;;;26.02;67.93;98574.70;126230;1092;22837;-84
2021/06/23 10:35:10;;;;;;;;;;;;;;;26.35;67.26;98579.42;126519;1093;22758;-84
2021/06/23 10:37:39;;;;;;;21.55;16.00;;;;;;;26.46;65.82;98583.38;126395;1093;21453;-84
2021/06/23 10:40:13;;;;;;;22.40;16.80;;;;;;;26.58;66.78;98584.55;126600;1092;23184;-84
2021/06/23 10:42:40;;;;;;;25.55;18.40;;;;;;;26.62;64.25;98575.16;126356;1092;25970;-84
2021/06/23 10:45:11;;;;;;;24.80;16.55;;;;;;;26.48;63.51;98583.04;126615;1092;23521;-84
2021/06/23 10:47:42;;;;;;;19.23;15.70;;;;;;;26.40;63.60;98583.95;126423;1093;25861;-84
2021/06/23 10:50:29;;;;;;;23.73;16.55;;;;;;;26.17;64.32;98589.98;126298;1093;22751;-84
2021/06/23 10:52:55;;;;;;;26.18;17.88;;;;;;;25.91;66.17;98584.64;126337;1093;26302;-84
2021/06/23 10:55:22;;;;;;;25.70;17.43;;;;;;;25.75;64.18;98588.07;126224;1093;22900;-84
2021/06/23 10:57:55;;;;;;;23.70;17.80;;;;;;;25.66;66.01;98584.55;126305;1091;22751;-84
2021/06/23 11:00:23;;;;;;;23.25;17.58;;;;;;;25.77;66.32;98585.75;126313;1091;22752;-83
2021/06/23 11:02:58;;;;;;;;;;;;;;;25.79;65.27;98592.97;126284;1093;22778;-84
2021/06/23 11:05:39;;;;;;;33.10;18.90;;;;;;;25.76;66.14;98586.92;126276;1093;21524;-84
2021/06/23 11:08:25;;;;;;;29.63;18.68;;;;;;;25.81;66.63;98585.88;126244;1093;22777;-84
2021/06/23 11:10:52;;;;;;;20.70;16.68;;;;;;;25.78;64.74;98580.97;126288;1093;27332;-84
2021/06/23 11:13:25;;;;;;;22.95;17.70;;;;;;;25.70;64.41;98582.70;126411;1093;26229;-84
2021/06/23 11:15:53;;;;;;;21.90;17.60;;;;;;;25.61;65.68;98581.17;126260;1093;22757;-83
2021/06/23 11:18:39;;;;;;;24.90;18.60;;;;;;;25.50;65.25;98587.16;126337;1093;22834;-83
2021/06/23 11:21:06;;;;;;;25.13;19.00;;;;;;;25.31;65.53;98572.88;126293;1093;22751;-83
2021/06/23 11:23:44;;;;;;;22.28;18.58;;;;;;;25.48;65.69;98583.89;126591;1092;27335;-84
2021/06/23 11:26:24;;;;;;;22.58;18.88;;;;;;;25.58;65.54;98579.86;126151;1093;22809;-84
2021/06/23 11:29:18;;;;;;;22.15;18.48;;;;;;;25.69;65.70;98580.25;126229;1093;22909;-83
2021/06/23 11:31:54;;;;;;;23.50;18.65;;;;;;;25.73;64.64;98584.81;126366;1093;22752;-83
2021/06/23 11:34:44;;;;;;;25.43;20.07;;;;;;;25.76;64.48;98577.72;126310;1093;22758;-84
2021/06/23 11:37:15;;;;;;;24.93;19.30;;;;;;;25.75;64.46;98578.89;126418;1092;22771;-83
2021/06/23 11:39:43;;;;;;;20.90;17.87;;;;;;;25.86;65.71;98579.28;126353;1092;24418;-84
2021/06/23 11:42:12;;;;;;;28.18;19.68;;;;;;;26.00;65.55;98579.81;126406;1093;22809;-83
2021/06/23 11:44:39;;;;;;;26.63;18.88;;;;;;;26.06;64.18;98580.41;126389;1093;24389;-84
2021/06/23 11:47:07;;;;;;;25.88;20.40;;;;;;;26.01;64.13;98583.41;126393;1092;25823;-83